Time;durP1;ratioP1;P1;durP2;ratioP2;P2;SDS_P1;SDS_P2;PMS_P1;PMS_P2;Temp;Humidity;BMP_temperature;BMP_pressure;BME280_temperature;BME280_humidity;BME280_pressure;Samples;Min_cycle;Max_cycle;Signal;HPM_P1;HPM_P2
2022/12/29 00:01:08;;;;;;;;;;;10.00;99.90;;;;;;6284916;22;19910;-91
2022/12/29 00:04:00;;;;;;;;;;;10.00;99.90;;;;;;6284509;22;19962;-92
2022/12/29 00:06:45;;;;;;;;;;;10.00;99.90;;;;;;6284799;22;19925;-92
2022/12/29 00:09:36;;;;;;;;;;;10.00;99.90;;;;;;6284907;22;19959;-92
2022/12/29 00:12:21;;;;;;;;;;;10.00;99.90;;;;;;6284810;22;19914;-91
2022/12/29 00:18:11;;;;;;;;;;;;;;;;;;6308050;22;19914;-92
2022/12/29 00:36:34;;;;;;;;;;;10.00;99.90;;;;;;6308473;22;20248;-90
2022/12/29 00:45:28;;;;;;;;;;;;;;;;;;6307063;22;19953;-92
2022/12/29 00:49:30;;;;;;;;;;;10.10;99.90;;;;;;6285127;22;19911;-90
2022/12/29 00:51:22;;;;;;;;;;;10.10;99.90;;;;;;6307615;22;19944;-92
2022/12/29 00:54:09;;;;;;;;;;;10.10;99.90;;;;;;6284601;22;19910;-92
2022/12/29 00:57:15;;;;;;;;;;;10.10;99.90;;;;;;6284638;22;19985;-91
2022/12/29 01:00:09;;;;;;;;;;;10.10;99.90;;;;;;6284935;22;20331;-91
2022/12/29 01:02:57;;;;;;;;;;;10.10;99.90;;;;;;6284302;22;20253;-90
2022/12/29 01:05:43;;;;;;;;;;;10.20;99.90;;;;;;6284962;22;19913;-91
2022/12/29 01:08:35;;;;;;;;;;;10.20;99.90;;;;;;6285063;22;19965;-92
2022/12/29 01:11:30;;;;;;;;;;;10.20;99.90;;;;;;6286161;22;20321;-92
2022/12/29 01:14:19;;;;;;;;;;;10.20;99.90;;;;;;6264919;22;19953;-90
2022/12/29 01:17:05;;;;;;;;;;;10.20;99.90;;;;;;6284851;22;19937;-91
2022/12/29 01:20:15;;;;;;;;;;;10.20;99.90;;;;;;6284467;22;19949;-91
2022/12/29 01:23:07;;;;;;;;;;;10.20;99.90;;;;;;6309833;22;19949;-91
2022/12/29 01:25:59;;;;;;;;;;;10.20;99.90;;;;;;6265246;22;19997;-91
2022/12/29 01:28:58;;;;;;;;;;;;;;;;;;;;;
2022/12/29 01:31:53;;;;;;;;;;;10.20;99.90;;;;;;6289176;22;19914;-91
2022/12/29 01:34:37;;;;;;;;;;;10.20;99.90;;;;;;6286481;22;19909;-92
2022/12/29 01:37:26;;;;;;;;;;;10.20;99.90;;;;;;6286627;22;19909;-91
2022/12/29 01:40:16;;;;;;;;;;;10.20;99.90;;;;;;6286545;22;19910;-90
2022/12/29 01:43:06;;;;;;;;;;;10.20;99.90;;;;;;6286123;22;20336;-90
2022/12/29 01:45:52;;;;;;;;;;;10.20;99.90;;;;;;6286903;22;19934;-91
2022/12/29 01:48:58;;;;;;;;;;;10.30;99.90;;;;;;6286597;22;19926;-90
2022/12/29 01:51:47;;;;;;;;;;;10.30;99.90;;;;;;6286587;22;19905;-91
2022/12/29 01:54:59;;;;;;;;;;;10.30;99.90;;;;;;6287052;22;19964;-90
2022/12/29 01:57:51;;;;;;;;;;;;;;;;;;6286843;22;19945;-91
2022/12/29 02:04:02;;;;;;;;;;;10.30;99.90;;;;;;6309190;22;19913;-91
2022/12/29 02:07:12;;;;;;;;;;;10.30;99.90;;;;;;6286390;22;19919;-90
2022/12/29 02:10:00;;;;;;;;;;;10.30;99.90;;;;;;6286027;22;19910;-90
2022/12/29 02:12:52;;;;;;;;;;;10.30;99.90;;;;;;6285685;22;19913;-89
2022/12/29 02:15:49;;;;;;;;;;;10.40;99.90;;;;;;6286218;22;20242;-90
2022/12/29 02:18:36;;;;;;;;;;;10.40;99.90;;;;;;6286672;22;19957;-90
2022/12/29 02:21:34;;;;;;;;;;;10.40;99.90;;;;;;6286215;22;19914;-92
2022/12/29 02:24:24;;;;;;;;;;;10.40;99.90;;;;;;6285883;22;19917;-90
2022/12/29 02:27:08;;;;;;;;;;;;;;;;;;6285815;22;19918;-90
2022/12/29 02:30:10;;;;;;;;;;;10.50;99.90;;;;;;6286438;22;20371;-91
2022/12/29 02:32:58;;;;;;;;;;;;;;;;;;6286008;22;20233;-91
2022/12/29 02:36:01;;;;;;;;;;;10.40;99.90;;;;;;6286061;22;19941;-91
2022/12/29 02:39:24;;;;;;;;;;;10.40;99.90;;;;;;6286131;22;19971;-91
2022/12/29 02:42:43;;;;;;;;;;;10.40;99.90;;;;;;6134415;23;19916;-92
2022/12/29 02:45:59;;;;;;;;;;;10.40;99.90;;;;;;6009753;23;20289;-92
2022/12/29 02:52:07;;;;;;;;;;;10.30;99.90;;;;;;6125633;23;19979;-91
2022/12/29 02:55:06;;;;;;;;;;;;;;;;;;;;;
2022/12/29 02:58:25;;;;;;;;;;;;;;;;;;;;;
2022/12/29 03:01:37;;;;;;;;;;;10.40;99.90;;;;;;6154982;23;20336;-92
2022/12/29 03:04:39;;;;;;;;;;;10.40;99.90;;;;;;6154601;23;19995;-91
2022/12/29 03:07:33;;;;;;;;;;;10.40;99.90;;;;;;6172585;22;19961;-93
2022/12/29 03:10:35;;;;;;;;;;;10.40;99.90;;;;;;6254929;22;19910;-89
2022/12/29 03:20:26;;;;;;;;;;;10.40;99.90;;;;;;6278048;22;20242;-94
2022/12/29 03:23:20;;;;;;;;;;;;;;;;;;6254820;22;19910;-93
2022/12/29 03:26:18;;;;;;;;;;;;;;;;;;;;;
2022/12/29 03:29:09;;;;;;;;;;;10.40;99.90;;;;;;6270271;22;19956;-91
2022/12/29 03:35:24;;;;;;;;;;;10.40;99.90;;;;;;6259600;22;19922;-90
2022/12/29 03:38:31;;;;;;;;;;;10.40;99.90;;;;;;6254663;22;19957;-92
2022/12/29 03:41:41;;;;;;;;;;;10.40;99.90;;;;;;6184809;23;19926;-93
2022/12/29 03:44:41;;;;;;;;;;;10.40;99.90;;;;;;6254134;22;19957;-93
2022/12/29 03:48:10;;;;;;;;;;;10.40;99.90;;;;;;6254668;22;19965;-91
2022/12/29 03:51:11;;;;;;;;;;;10.30;99.90;;;;;;6277189;22;20289;-91
2022/12/29 03:54:16;;;;;;;;;;;;;;;;;;;;;
2022/12/29 03:57:03;;;;;;;;;;;10.30;99.90;;;;;;6257617;22;20398;-93
2022/12/29 04:00:10;;;;;;;;;;;10.30;99.90;;;;;;6232886;22;20384;-92
2022/12/29 04:06:24;;;;;;;;;;;;;;;;;;;;;
2022/12/29 04:26:25;;;;;;;;;;;10.20;99.90;;;;;;6149121;23;19939;-90
2022/12/29 04:29:36;;;;;;;;;;;10.20;99.90;;;;;;6132785;23;19911;-91
2022/12/29 04:32:33;;;;;;;;;;;;;;;;;;;;;
2022/12/29 04:38:36;;;;;;;;;;;10.20;99.90;;;;;;6152617;23;20100;-92
2022/12/29 04:41:31;;;;;;;;;;;;;;;;;;;;;
2022/12/29 04:47:57;;;;;;;;;;;;;;;;;;;;;
2022/12/29 04:51:01;;;;;;;;;;;;;;;;;;;;;
2022/12/29 04:54:18;;;;;;;;;;;;;;;;;;;;;
2022/12/29 05:21:21;;;;;;;;;;;;;;;;;;;;;
2022/12/29 05:24:25;;;;;;;;;;;9.80;99.90;;;;;;6185040;22;20361;-91
2022/12/29 05:27:22;;;;;;;;;;;;;;;;;;;;;
2022/12/29 05:30:32;;;;;;;;;;;9.80;99.90;;;;;;6308121;22;19910;-92
2022/12/29 05:33:24;;;;;;;;;;;9.70;99.90;;;;;;6284264;22;20375;-93
2022/12/29 05:39:59;;;;;;;;;;;;;;;;;;;;;
2022/12/29 05:50:11;;;;;;;;;;;9.60;99.90;;;;;;6303972;22;19980;-91
2022/12/29 06:03:20;;;;;;;;;;;9.60;99.90;;;;;;6238379;22;19910;-93
2022/12/29 06:13:41;;;;;;;;;;;9.50;99.90;;;;;;6154628;23;19911;-92
2022/12/29 06:17:02;;;;;;;;;;;;;;;;;;;;;
2022/12/29 06:23:32;;;;;;;;;;;9.50;99.90;;;;;;6025432;23;19950;-92
2022/12/29 06:26:24;;;;;;;;;;;9.50;99.90;;;;;;6134387;23;19916;-93
2022/12/29 06:29:42;;;;;;;;;;;;;;;;;;;;;
2022/12/29 06:32:40;;;;;;;;;;;;;;;;;;6290488;22;19914;-92
2022/12/29 06:35:48;;;;;;;;;;;;;;;;;;;;;
2022/12/29 06:38:34;;;;;;;;;;;9.60;99.90;;;;;;6287705;22;19980;-88
2022/12/29 06:41:21;;;;;;;;;;;9.50;99.90;;;;;;6285122;22;19925;-92
2022/12/29 06:44:06;;;;;;;;;;;;;;;;;;6285402;22;19930;-90
2022/12/29 06:47:00;;;;;;;;;;;;;;;;;;6284399;22;19917;-90
2022/12/29 06:49:52;;;;;;;;;;;;;;;;;;6284554;22;19982;-91
2022/12/29 06:52:56;;;;;;;;;;;9.50;99.90;;;;;;6285181;22;19910;-90
2022/12/29 06:58:48;;;;;;;;;;;9.50;99.90;;;;;;6303019;22;19956;-88
2022/12/29 07:01:52;;;;;;;;;;;9.50;99.90;;;;;;6286167;22;19910;-92
2022/12/29 07:04:47;;;;;;;;;;;9.50;99.90;;;;;;6267040;22;20288;-92
2022/12/29 07:07:36;;;;;;;;;;;9.50;99.90;;;;;;6285363;22;19909;-91
2022/12/29 07:10:24;;;;;;;;;;;9.50;99.90;;;;;;6285067;22;19925;-91
2022/12/29 07:13:11;;;;;;;;;;;9.50;99.90;;;;;;6284938;22;20277;-89
2022/12/29 07:16:01;;;;;;;;;;;9.50;99.90;;;;;;6284376;22;19931;-91
2022/12/29 07:18:51;;;;;;;;;;;;;;;;;;6285678;22;19910;-93
2022/12/29 07:21:38;;;;;;;;;;;9.60;99.90;;;;;;6284712;22;19960;-91
2022/12/29 07:24:25;;;;;;;;;;;;;;;;;;6284492;22;20284;-90
2022/12/29 07:27:22;;;;;;;;;;;;;;;;;;;;;
2022/12/29 07:30:33;;;;;;;;;;;9.70;99.90;;;;;;6307703;22;19909;-93
2022/12/29 07:33:31;;;;;;;;;;;9.70;99.90;;;;;;6284926;22;19910;-92
2022/12/29 07:36:46;;;;;;;;;;;9.70;99.90;;;;;;6284587;22;19910;-92
2022/12/29 07:39:59;;;;;;;;;;;9.70;99.90;;;;;;6267504;22;19913;-91
2022/12/29 07:42:46;;;;;;;;;;;9.70;99.90;;;;;;6284687;22;19910;-91
2022/12/29 07:52:29;;;;;;;;;;;9.70;99.90;;;;;;6276690;22;19953;-92
2022/12/29 07:55:35;;;;;;;;;;;;;;;;;;6253660;22;19957;-91
2022/12/29 07:58:29;;;;;;;;;;;;;;;;;;;;;
2022/12/29 08:01:13;;;;;;;;;;;9.70;99.90;;;;;;6276260;22;19910;-93
2022/12/29 08:04:04;;;;;;;;;;;;;;;;;;6276643;22;19909;-95
2022/12/29 08:06:51;;;;;;;;;;;;;;;;;;6253405;22;19914;-92
2022/12/29 08:10:06;;;;;;;;;;;;;;;;;;;;;
2022/12/29 08:13:03;;;;;;;;;;;;;;;;;;;;;
2022/12/29 08:16:16;;;;;;;;;;;9.60;99.90;;;;;;6276795;22;19910;-93
2022/12/29 08:19:12;;;;;;;;;;;9.60;99.90;;;;;;6231894;22;19910;-93
2022/12/29 08:22:16;;;;;;;;;;;9.70;99.90;;;;;;6254310;22;19910;-93
2022/12/29 08:28:32;;;;;;;;;;;9.70;99.90;;;;;;6276773;22;19910;-92
2022/12/29 08:31:44;;;;;;;;;;;9.70;99.90;;;;;;6235994;22;20361;-91
2022/12/29 08:34:34;;;;;;;;;;;9.70;99.90;;;;;;6254225;22;20243;-92
2022/12/29 08:37:21;;;;;;;;;;;9.70;99.90;;;;;;6233046;22;20408;-91
2022/12/29 08:40:09;;;;;;;;;;;9.60;99.90;;;;;;6232044;22;19995;-92
2022/12/29 08:42:53;;;;;;;;;;;9.70;99.90;;;;;;6254679;22;20368;-92
2022/12/29 08:46:00;;;;;;;;;;;9.70;99.90;;;;;;6254729;22;20249;-94
2022/12/29 09:02:30;;;;;;;;;;;;;;;;;;;;;
2022/12/29 09:05:36;;;;;;;;;;;9.70;99.90;;;;;;6188213;23;19965;-93
2022/12/29 09:08:31;;;;;;;;;;;;;;;;;;;;;
2022/12/29 09:11:41;;;;;;;;;;;9.70;99.90;;;;;;6214123;23;19990;-92
2022/12/29 09:24:44;;;;;;;;;;;9.50;99.90;;;;;;6104522;23;19920;-94
2022/12/29 09:27:56;;;;;;;;;;;;;;;;;;;;;
2022/12/29 09:42:05;;;;;;;;;;;;;;;;;;;;;
2022/12/29 10:37:25;;;;;;;;;;;;;;;;;;;;;
2022/12/29 10:43:53;;;;;;;;;;;8.90;99.90;;;;;;6188910;23;19932;-94
2022/12/29 10:47:10;;;;;;;;;;;;;;;;;;;;;
2022/12/29 10:50:21;;;;;;;;;;;8.90;99.90;;;;;;6184179;23;19912;-93
2022/12/29 10:57:17;;;;;;;;;;;;;;;;;;;;;
2022/12/29 12:17:47;;;;;;;;;;;;;;;;;;;;;
2022/12/29 12:20:48;;;;;;;;;;;;;;;;;;;;;
2022/12/29 12:27:43;;;;;;;;;;;;;;;;;;;;;
2022/12/29 12:30:48;;;;;;;;;;;9.50;99.90;;;;;;6051346;23;20333;-93
2022/12/29 12:44:12;;;;;;;;;;;9.50;99.90;;;;;;5983071;24;20354;-94
2022/12/29 13:01:18;;;;;;;;;;;9.60;99.90;;;;;;5845728;24;20358;-93
2022/12/29 13:24:45;;;;;;;;;;;;;;;;;;;;;
2022/12/29 13:28:04;;;;;;;;;;;;;;;;;;;;;
2022/12/29 13:35:03;;;;;;;;;;;;;;;;;;;;;
2022/12/29 14:00:19;;;;;;;;;;;9.80;99.90;;;;;;6128278;23;19927;-89
2022/12/29 14:03:09;;;;;;;;;;;;;;;;;;6108434;23;20437;-94
2022/12/29 14:06:22;;;;;;;;;;;;;;;;;;;;;
2022/12/29 14:13:01;;;;;;;;;;;;;;;;;;;;;
2022/12/29 14:16:20;;;;;;;;;;;9.60;99.90;;;;;;6265217;22;20012;-93
2022/12/29 14:23:11;;;;;;;;;;;;;;;;;;;;;
2022/12/29 14:29:45;;;;;;;14.13;3.45;;;9.50;99.90;;;;;;4634716;27;15099760;-90
2022/12/29 14:32:30;;;;;;;15.15;2.22;;;;;;;;;;5157731;27;20123;-90
2022/12/29 14:36:15;;;;;;;11.48;3.30;;;9.40;99.90;;;;;;5135698;27;20085;-93
2022/12/29 14:39:31;;;;;;;16.00;3.15;;;;;;;;;;5135464;27;20046;-92
2022/12/29 14:42:43;;;;;;;12.05;2.05;;;;;;;;;;5144313;27;20493;-92
2022/12/29 14:45:33;;;;;;;15.80;3.17;;;;;;;;;;5150927;27;20102;-93
2022/12/29 14:48:39;;;;;;;10.98;2.30;;;;;;;;;;5130369;27;20069;-93
2022/12/29 14:51:54;;;;;;;12.57;2.45;;;;;;;;;;5157329;27;20129;-94
2022/12/29 14:54:39;;;;;;;17.45;3.08;;;;;;;;;;5157121;27;20119;-92
2022/12/29 14:57:29;;;;;;;9.32;2.22;;;;;;;;;;5156563;27;20501;-91
2022/12/29 15:03:53;;;;;;;16.77;2.80;;;;;;;;;;5123966;27;20391;-89
2022/12/29 15:06:41;;;;;;;19.13;3.67;;;;;;;;;;5167142;27;20148;-91
2022/12/29 15:09:40;;;;;;;10.25;2.25;;;;;;;;;;5178483;27;20037;-92
2022/12/29 15:16:38;;;;;;;;;;;;;;;;;;;;;
2022/12/29 15:19:33;;;;;;;14.15;3.38;;;;;;;;;;5140946;27;20095;-93
2022/12/29 15:22:21;;;;;;;16.77;3.47;;;;;;;;;;5124080;27;20160;-92
2022/12/29 15:32:29;;;;;;;12.00;3.53;;;;;;;;;;5143749;27;20091;-93
2022/12/29 15:35:29;;;;;;;15.70;2.97;;;;;;;;;;5130067;28;20047;-91
2022/12/29 15:38:18;;;;;;;11.32;2.90;;;;;;;;;;5126483;28;20407;-90
2022/12/29 15:41:28;;;;;;;13.38;3.13;;;;;;;;;;5122269;27;20074;-92
2022/12/29 15:44:48;;;;;;;8.55;2.00;;;;;;;;;;5135715;27;20072;-90
2022/12/29 15:55:00;;;;;;;8.90;3.03;;;;;;;;;;5137522;27;20026;-92
2022/12/29 15:58:00;;;;;;;;;;;;;;;;;;;;;
2022/12/29 16:01:12;;;;;;;14.00;4.20;;;;;;;;;;5063459;28;20075;-92
2022/12/29 16:08:05;;;;;;;16.48;2.83;;;;;;;;;;5074103;28;20170;-91
2022/12/29 16:11:00;;;;;;;12.27;3.38;;;;;;;;;;5111012;28;20607;-90
2022/12/29 16:13:48;;;;;;;13.50;2.75;;;;;;;;;;5113550;28;20076;-91
2022/12/29 16:16:47;;;;;;;14.10;1.98;;;;;;;;;;5115268;28;20534;-92
2022/12/29 16:19:32;;;;;;;11.63;3.70;;;;;;;;;;5122720;27;20079;-92
2022/12/29 16:22:49;;;;;;;16.48;6.40;;;;;;;;;;5132703;27;20034;-93
2022/12/29 16:25:37;;;;;;;21.20;4.18;;;;;;;;;;5140958;27;20513;-93
2022/12/29 16:28:41;;;;;;;8.85;2.50;;;;;;;;;;5147861;27;20057;-90
2022/12/29 16:31:51;;;;;;;20.10;3.05;;;;;;;;;;5131551;27;20034;-91
2022/12/29 16:34:41;;;;;;;19.60;3.53;;;;;;;;;;5048913;28;20042;-90
2022/12/29 16:37:37;;;;;;;9.95;3.47;;;;;;;;;;5133784;27;20106;-89
2022/12/29 16:40:42;;;;;;;9.43;2.40;;;;;;;;;;5136963;27;20034;-91
2022/12/29 16:43:41;;;;;;;;;;;;;;;;;;;;;
2022/12/29 16:46:52;;;;;;;13.32;2.95;;;;;;;;;;5150233;27;20044;-92
2022/12/29 16:53:24;;;;;;;11.65;2.53;;;;;;;;;;5109729;27;20091;-92
2022/12/29 16:56:30;;;;;;;;;;;;;;;;;;;;;
2022/12/29 17:02:56;;;;;;;;;;;;;;;;;;;;;
2022/12/29 17:05:43;;;;;;;5.20;1.90;;;;;;;;;;5147275;27;20034;-92
2022/12/29 17:08:37;;;;;;;6.00;1.50;;;;;;;;;;5108015;27;20064;-90
2022/12/29 17:14:38;;;;;;;4.28;1.10;;;;;;;;;;5152306;27;20277;-91
2022/12/29 17:17:28;;;;;;;4.90;1.30;;;;;;;;;;5139090;27;20050;-90
2022/12/29 17:20:31;;;;;;;9.02;1.67;;;;;;;;;;5140172;27;20041;-92
2022/12/29 17:23:18;;;;;;;6.00;1.40;;;;;;;;;;5140644;27;20110;-93
2022/12/29 17:26:10;;;;;;;9.75;1.40;;;;;;;;;;5139412;27;20049;-91
2022/12/29 17:28:57;;;;;;;4.43;1.60;;;;;;;;;;5129301;27;20054;-90
2022/12/29 17:31:45;;;;;;;6.78;1.85;;;;;;;;;;5148580;27;20069;-94
2022/12/29 17:34:59;;;;;;;6.30;1.98;;;;;;;;;;5114966;27;20683;-92
2022/12/29 17:38:04;;;;;;;11.90;3.53;;;;;;;;;;5148012;27;20094;-91
2022/12/29 17:51:53;;;;;;;8.07;3.40;;;;;;;;;;4956029;29;20046;-93
2022/12/29 18:08:51;;;;;;;11.32;3.78;;;;;;;;;;4995488;28;20049;-92
2022/12/29 18:11:59;;;;;;;11.27;3.08;;;;;;;;;;4993762;28;20484;-94
2022/12/29 18:18:01;;;;;;;15.15;4.72;;;;;;;;;;5062834;28;20440;-93
2022/12/29 18:20:49;;;;;;;14.90;5.32;;;;;;;;;;5052490;28;20086;-93
2022/12/29 18:30:25;;;;;;;15.88;4.78;;;;;;;;;;5092525;28;20070;-92
2022/12/29 18:33:21;;;;;;;11.32;3.97;;;;;;;;;;5089452;28;20507;-93
2022/12/29 18:36:10;;;;;;;16.58;5.47;;;;;;;;;;5063350;28;20038;-94
2022/12/29 18:38:55;;;;;;;13.60;4.40;;;;;;;;;;5137432;27;20171;-93
2022/12/29 18:41:45;;;;;;;17.48;4.95;;;;;;;;;;5155221;27;20046;-92
2022/12/29 18:48:11;;;;;;;;;;;;;;;;;;;;;
2022/12/29 18:50:58;;;;;;;15.93;5.22;;;;;;;;;;5157791;27;20041;-96
2022/12/29 18:53:44;;;;;;;17.65;4.53;;;;;;;;;;5128574;27;20066;-88
2022/12/29 21:50:14;;;;;;;28.63;3.38;;;;;;;;;;6247008;22;1291607;-94
2022/12/29 21:52:59;;;;;;;15.43;3.90;;;;;;;;;;6260531;22;20014;-94
2022/12/29 21:55:49;;;;;;;22.10;4.18;;;;;;;;;;6261213;22;20018;-95
2022/12/29 22:14:12;;;;;;;17.98;4.22;;;;;;;;;;6271517;22;20071;-92
2022/12/29 22:17:06;;;;;;;18.58;3.60;;;;;;;;;;6255971;22;20352;-95
2022/12/29 22:19:54;;;;;;;19.50;3.92;;;;;;;;;;6278693;22;20293;-94
2022/12/29 22:22:41;;;;;;;19.63;3.35;;;;;;;;;;6254705;22;20087;-95
2022/12/29 22:25:35;;;;;;;22.30;3.97;;;;;;;;;;6253291;22;20015;-95
2022/12/29 22:28:20;;;;;;;21.58;4.05;;;;;;;;;;6252746;22;20015;-93
2022/12/29 22:31:25;;;;;;;16.08;4.43;;;;;;;;;;6254173;22;20050;-96
2022/12/29 22:34:12;;;;;;;21.73;4.95;;;;;;;;;;6255509;22;20495;-94
2022/12/29 22:37:00;;;;;;;18.17;3.28;;;;;;;;;;6278870;22;20481;-94
2022/12/29 22:39:44;;;;;;;22.02;4.35;;;;;;;;;;6257780;22;20019;-95
2022/12/29 22:42:32;;;;;;;26.77;5.47;;;;;;;;;;6258528;22;20018;-95
2022/12/29 22:45:17;;;;;;;19.45;3.15;;;;;;;;;;6257557;22;20334;-93
2022/12/29 22:48:06;;;;;;;21.65;3.38;;;;;;;;;;6257560;22;20017;-93
2022/12/29 22:51:04;;;;;;;28.05;5.68;;;;;;;;;;6253298;22;20026;-94
2022/12/29 22:53:53;;;;;;;20.60;4.65;;;;;;;;;;6257270;22;20046;-94
2022/12/29 22:56:43;;;;;;;19.13;4.80;;;;;;;;;;6262334;22;20030;-95
2022/12/29 22:59:38;;;;;;;;;;;;;;;;;;;;;
2022/12/29 23:02:23;;;;;;;18.98;4.82;;;;;;;;;;6287415;22;20672;-94
2022/12/29 23:05:13;;;;;;;16.00;4.22;;;;;;;;;;6261315;22;20015;-94
2022/12/29 23:08:00;;;;;;;24.38;5.18;;;;;;;;;;6265243;22;20014;-96
2022/12/29 23:10:44;;;;;;;24.85;4.25;;;;;;;;;;6259700;22;20046;-95
2022/12/29 23:13:39;;;;;;;16.05;4.10;;;;;;;;;;6259352;22;20117;-95
2022/12/29 23:16:42;;;;;;;25.20;4.55;;;;;;;;;;6260061;22;20037;-95
2022/12/29 23:19:32;;;;;;;14.98;3.88;;;;;;;;;;6261856;22;20458;-95
2022/12/29 23:22:24;;;;;;;27.00;5.47;;;;;;;;;;6241674;22;20054;-95
2022/12/29 23:25:12;;;;;;;29.13;6.50;;;;;;;;;;6241273;22;20511;-96
2022/12/29 23:28:09;;;;;;;;;;;;;;;;;;;;;
2022/12/29 23:31:00;;;;;;;34.22;7.68;;;;;;;;;;6278841;22;20014;-95
2022/12/29 23:33:47;;;;;;;22.30;4.03;;;;;;;;;;6279924;22;20018;-96
2022/12/29 23:36:40;;;;;;;26.15;4.22;;;;;;;;;;6235907;22;20022;-95
2022/12/29 23:39:28;;;;;;;26.20;4.57;;;;;;;;;;6280588;22;20057;-95
2022/12/29 23:42:13;;;;;;;23.25;4.70;;;;;;;;;;6261282;22;20066;-96
2022/12/29 23:44:59;;;;;;;21.87;3.97;;;;;;;;;;6259166;22;20017;-96
2022/12/29 23:48:08;;;;;;;17.30;4.18;;;;;;;;;;6265827;22;20091;-94
2022/12/29 23:50:55;;;;;;;30.00;4.65;;;;;;;;;;6249302;22;20058;-95
2022/12/29 23:53:43;;;;;;;21.42;4.18;;;;;;;;;;6246487;22;20054;-95
2022/12/29 23:56:32;;;;;;;25.15;4.45;;;;;;;;;;6263304;22;20065;-93
2022/12/29 23:59:38;;;;;;;19.70;4.63;;;;;;;;;;6267041;22;20015;-95
